createdAt,value
2023-04-20T00:01:08.553Z,8.40
2023-04-20T00:03:38.151Z,8.40
2023-04-20T00:06:06.973Z,8.50
2023-04-20T00:08:35.323Z,8.50
2023-04-20T00:11:03.797Z,8.50
2023-04-20T00:13:32.371Z,8.50
2023-04-20T00:16:00.588Z,8.50
2023-04-20T00:18:30.184Z,8.50
2023-04-20T00:20:58.388Z,8.50
2023-04-20T00:23:26.732Z,8.50
2023-04-20T00:25:55.329Z,8.50
2023-04-20T00:28:23.612Z,8.50
2023-04-20T00:30:51.930Z,8.50
2023-04-20T00:33:20.155Z,8.50
2023-04-20T00:35:50.023Z,8.50
2023-04-20T00:38:21.014Z,8.50
2023-04-20T00:40:56.267Z,8.40
2023-04-20T00:43:28.394Z,8.30
2023-04-20T00:46:00.787Z,8.40
2023-04-20T00:48:29.371Z,8.40
2023-04-20T00:50:59.343Z,8.40
2023-04-20T00:53:27.867Z,8.30
2023-04-20T00:55:57.811Z,8.50
2023-04-20T00:58:26.263Z,8.30
2023-04-20T01:00:55.265Z,8.30
2023-04-20T01:03:23.795Z,8.10
2023-04-20T01:05:52.802Z,8.20
2023-04-20T01:08:27.677Z,8.30
2023-04-20T01:10:57.047Z,8.20
2023-04-20T01:13:25.389Z,8.00
2023-04-20T01:15:53.941Z,8.00
2023-04-20T01:18:23.012Z,8.00
2023-04-20T01:20:51.340Z,8.00
2023-04-20T01:23:21.065Z,8.00
2023-04-20T01:25:49.270Z,8.00
2023-04-20T01:28:19.760Z,8.20
2023-04-20T01:30:48.137Z,8.00
2023-04-20T01:33:16.513Z,7.90
2023-04-20T01:35:44.918Z,7.90
2023-04-20T01:38:20.744Z,7.80
2023-04-20T01:40:49.231Z,7.70
2023-04-20T01:43:18.198Z,7.70
2023-04-20T01:45:46.701Z,7.60
2023-04-20T01:48:15.010Z,7.50
2023-04-20T01:50:43.303Z,7.30
2023-04-20T01:53:13.982Z,7.20
2023-04-20T01:55:43.854Z,7.40
2023-04-20T01:58:12.055Z,7.00
2023-04-20T02:00:40.247Z,7.00
2023-04-20T02:03:09.291Z,6.90
2023-04-20T02:05:37.727Z,6.90
2023-04-20T02:08:06.808Z,7.10
2023-04-20T02:10:35.113Z,6.70
2023-04-20T02:13:04.890Z,6.60
2023-04-20T02:15:33.623Z,6.60
2023-04-20T02:18:02.016Z,6.50
2023-04-20T02:20:30.404Z,6.40
2023-04-20T02:22:58.831Z,6.50
2023-04-20T02:25:27.145Z,6.20
2023-04-20T02:27:57.958Z,6.20
2023-04-20T02:30:28.660Z,6.20
2023-04-20T02:32:57.010Z,6.10
2023-04-20T02:35:29.406Z,6.10
2023-04-20T02:38:00.025Z,6.00
2023-04-20T02:40:28.317Z,6.00
2023-04-20T02:42:59.454Z,6.20
2023-04-20T02:45:30.859Z,5.90
2023-04-20T02:47:59.238Z,5.90
2023-04-20T02:50:31.384Z,5.80
2023-04-20T02:53:16.542Z,5.70
2023-04-20T02:55:58.569Z,5.70
2023-04-20T02:58:37.957Z,5.70
2023-04-20T03:01:18.358Z,5.60
2023-04-20T03:03:49.712Z,5.60
2023-04-20T03:06:18.152Z,5.50
2023-04-20T03:08:54.938Z,5.40
2023-04-20T03:11:46.818Z,5.50
2023-04-20T03:14:26.368Z,5.30
2023-04-20T03:17:01.768Z,5.30
2023-04-20T03:19:30.219Z,5.20
2023-04-20T03:22:02.057Z,5.20
2023-04-20T03:24:33.762Z,5.40
2023-04-20T03:27:07.289Z,5.20
2023-04-20T03:29:44.035Z,5.30
2023-04-20T03:32:13.997Z,5.20
2023-04-20T03:34:42.393Z,5.20
2023-04-20T03:37:10.732Z,5.20
2023-04-20T03:39:39.132Z,5.40
2023-04-20T03:42:07.553Z,5.30
2023-04-20T03:44:38.912Z,5.20
2023-04-20T03:47:07.546Z,5.30
2023-04-20T03:49:37.475Z,5.30
2023-04-20T03:52:06.497Z,5.30
2023-04-20T03:54:36.395Z,5.40
2023-04-20T03:57:05.093Z,5.50
2023-04-20T03:59:33.654Z,5.50
2023-04-20T04:02:05.984Z,5.50
2023-04-20T04:04:39.839Z,5.50
2023-04-20T04:07:10.814Z,5.50
2023-04-20T04:09:41.742Z,5.70
2023-04-20T04:12:15.737Z,5.50
2023-04-20T04:14:44.934Z,5.50
2023-04-20T04:17:16.870Z,5.50
2023-04-20T04:19:46.718Z,5.50
2023-04-20T04:22:15.220Z,5.60
2023-04-20T04:24:58.687Z,5.70
2023-04-20T04:27:35.053Z,5.40
2023-04-20T04:30:04.782Z,5.60
2023-04-20T04:32:38.715Z,5.60
2023-04-20T04:35:12.165Z,5.80
2023-04-20T04:37:41.214Z,5.60
2023-04-20T04:40:11.141Z,5.90
2023-04-20T04:42:40.533Z,5.70
2023-04-20T04:45:11.648Z,5.80
2023-04-20T04:47:42.604Z,5.90
2023-04-20T04:50:13.248Z,5.90
2023-04-20T04:52:41.626Z,6.00
2023-04-20T04:55:13.827Z,6.10
2023-04-20T04:57:43.502Z,6.30
2023-04-20T05:00:13.146Z,6.20
2023-04-20T05:02:43.624Z,6.30
2023-04-20T05:05:17.206Z,6.30
2023-04-20T05:07:51.816Z,6.40
2023-04-20T05:10:20.599Z,6.50
2023-04-20T05:12:48.773Z,6.50
2023-04-20T05:15:18.265Z,6.60
2023-04-20T05:17:46.600Z,6.60
2023-04-20T05:20:16.512Z,6.50
2023-04-20T05:22:45.286Z,6.50
2023-04-20T05:25:14.240Z,6.50
2023-04-20T05:27:42.743Z,6.50
2023-04-20T05:30:20.208Z,6.60
2023-04-20T05:33:01.727Z,6.60
2023-04-20T05:35:36.434Z,6.60
2023-04-20T05:38:06.318Z,6.40
2023-04-20T05:40:37.414Z,6.50
2023-04-20T05:43:06.080Z,6.60
2023-04-20T05:45:34.759Z,6.80
2023-04-20T05:48:03.177Z,6.50
2023-04-20T05:50:33.177Z,6.70
2023-04-20T05:53:01.547Z,6.60
2023-04-20T05:55:29.798Z,6.60
2023-04-20T05:58:13.374Z,6.70
2023-04-20T06:00:42.742Z,6.90
2023-04-20T06:03:13.491Z,6.80
2023-04-20T06:05:43.626Z,7.00
2023-04-20T06:08:12.002Z,6.90
2023-04-20T06:10:40.548Z,7.00
2023-04-20T06:13:08.791Z,7.20
2023-04-20T06:15:37.260Z,7.00
2023-04-20T06:18:08.864Z,7.10
2023-04-20T06:20:40.649Z,7.10
2023-04-20T06:23:15.618Z,7.10
2023-04-20T06:25:45.704Z,7.20
2023-04-20T06:28:16.081Z,7.20
2023-04-20T06:30:55.822Z,7.20
2023-04-20T06:33:38.486Z,7.30
2023-04-20T06:36:13.441Z,7.30
2023-04-20T06:39:08.043Z,7.30
2023-04-20T06:41:39.811Z,7.30
2023-04-20T06:44:11.858Z,7.40
2023-04-20T06:46:43.554Z,7.40
2023-04-20T06:49:12.809Z,7.50
2023-04-20T06:51:51.291Z,7.60
2023-04-20T06:54:23.450Z,7.70
2023-04-20T07:00:01.077Z,7.70
2023-04-20T07:02:32.744Z,7.70
2023-04-20T07:05:07.541Z,7.70
2023-04-20T07:07:37.513Z,7.70
2023-04-20T07:10:25.715Z,7.60
2023-04-20T07:12:57.447Z,7.70
2023-04-20T07:15:26.875Z,7.80
2023-04-20T07:17:58.089Z,7.80
2023-04-20T07:20:26.959Z,7.80
2023-04-20T07:22:57.787Z,7.90
2023-04-20T07:25:29.485Z,7.90
2023-04-20T07:28:01.202Z,7.80
2023-04-20T07:30:31.310Z,8.00
2023-04-20T07:33:00.634Z,8.00
2023-04-20T07:35:32.532Z,8.10
2023-04-20T07:38:04.558Z,8.30
2023-04-20T07:40:35.183Z,8.50
2023-04-20T07:43:09.830Z,8.60
2023-04-20T07:45:42.368Z,8.70
2023-04-20T07:48:21.025Z,8.80
2023-04-20T07:50:59.221Z,8.80
2023-04-20T07:53:39.549Z,8.90
2023-04-20T07:56:26.549Z,9.00
2023-04-20T07:58:58.659Z,9.20
2023-04-20T08:01:29.317Z,9.30
2023-04-20T08:04:15.316Z,9.30
2023-04-20T08:06:48.748Z,9.30
2023-04-20T08:09:24.988Z,9.50
2023-04-20T08:12:17.504Z,9.50
2023-04-20T08:14:48.526Z,9.70
2023-04-20T08:17:22.532Z,9.80
2023-04-20T08:20:03.164Z,9.90
2023-04-20T08:22:45.450Z,10.00
2023-04-20T08:25:36.985Z,10.00
2023-04-20T08:28:32.484Z,10.10
2023-04-20T08:31:20.764Z,10.20
2023-04-20T08:34:08.007Z,10.20
2023-04-20T08:36:47.982Z,10.30
2023-04-20T08:42:17.414Z,10.50
2023-04-20T08:45:08.424Z,10.70
2023-04-20T08:47:49.161Z,10.60
2023-04-20T08:50:31.266Z,10.80
2023-04-20T08:53:06.049Z,10.80
2023-04-20T08:55:51.945Z,10.90
2023-04-20T08:58:42.871Z,10.80
2023-04-20T09:01:32.142Z,10.90
2023-04-20T09:04:13.878Z,10.90
2023-04-20T09:07:01.938Z,11.00
2023-04-20T09:09:37.037Z,11.00
2023-04-20T09:12:22.681Z,11.00
2023-04-20T09:15:07.451Z,11.00
2023-04-20T09:17:54.759Z,11.10
2023-04-20T09:20:41.244Z,11.20
2023-04-20T09:23:19.534Z,11.10
2023-04-20T09:25:55.474Z,11.40
2023-04-20T09:29:00.447Z,11.30
2023-04-20T09:32:02.578Z,11.40
2023-04-20T09:34:57.748Z,11.40
2023-04-20T09:37:47.104Z,11.50
2023-04-20T09:40:25.762Z,11.50
2023-04-20T09:43:06.188Z,11.60
2023-04-20T09:45:53.746Z,11.60
2023-04-20T09:48:37.658Z,11.60
2023-04-20T09:51:16.794Z,11.60
2023-04-20T09:53:53.004Z,11.50
2023-04-20T09:56:31.633Z,11.40
2023-04-20T09:59:00.986Z,11.40
2023-04-20T10:01:40.679Z,11.30
2023-04-20T10:04:32.093Z,11.40
2023-04-20T10:07:35.499Z,11.30
2023-04-20T10:10:33.012Z,11.20
2023-04-20T10:13:12.882Z,11.10
2023-04-20T10:15:56.243Z,11.10
2023-04-20T10:18:31.702Z,11.00
2023-04-20T10:21:13.051Z,11.00
2023-04-20T10:24:06.855Z,11.00
2023-04-20T10:27:02.288Z,11.00
2023-04-20T10:29:35.922Z,11.00
2023-04-20T10:32:13.184Z,10.90
2023-04-20T10:34:53.746Z,10.90
2023-04-20T10:37:29.452Z,11.00
2023-04-20T10:40:24.455Z,11.00
2023-04-20T10:42:59.774Z,11.00
2023-04-20T10:45:52.780Z,11.00
2023-04-20T10:48:32.280Z,11.00
2023-04-20T10:51:18.395Z,11.00
2023-04-20T10:54:00.013Z,10.90
2023-04-20T10:56:52.771Z,11.00
2023-04-20T11:02:39.423Z,11.20
2023-04-20T11:05:41.813Z,11.10
2023-04-20T11:08:13.883Z,11.30
2023-04-20T11:10:46.076Z,11.40
2023-04-20T11:13:25.368Z,11.40
2023-04-20T11:15:53.775Z,11.40
2023-04-20T11:18:22.321Z,11.30
2023-04-20T11:20:54.716Z,11.30
2023-04-20T11:23:24.748Z,11.30
2023-04-20T11:26:01.141Z,11.30
2023-04-20T11:28:34.688Z,11.30
2023-04-20T11:31:17.461Z,11.40
2023-04-20T11:33:46.724Z,11.60
2023-04-20T11:36:26.607Z,11.60
2023-04-20T11:38:55.936Z,11.70
2023-04-20T11:41:24.249Z,11.70
2023-04-20T11:43:54.778Z,11.70
2023-04-20T11:46:23.450Z,11.70
2023-04-20T11:48:53.690Z,11.80
2023-04-20T11:51:27.112Z,11.90
2023-04-20T11:53:55.579Z,11.90
2023-04-20T11:56:30.011Z,11.90
2023-04-20T11:59:03.781Z,11.90
2023-04-20T12:01:40.701Z,11.80
2023-04-20T12:04:12.229Z,11.80
2023-04-20T12:06:43.754Z,11.90
2023-04-20T12:09:15.551Z,11.90
2023-04-20T12:11:48.123Z,11.90
2023-04-20T12:14:27.884Z,11.90
2023-04-20T12:17:15.580Z,11.90
2023-04-20T12:19:48.795Z,11.90
2023-04-20T12:22:28.437Z,12.00
2023-04-20T12:25:04.938Z,12.00
2023-04-20T12:27:45.308Z,12.20
2023-04-20T12:33:11.471Z,12.30
2023-04-20T12:35:46.601Z,12.30
2023-04-20T12:38:31.556Z,12.30
2023-04-20T12:41:22.280Z,12.40
2023-04-20T12:47:02.386Z,12.40
2023-04-20T12:49:51.858Z,12.40
2023-04-20T12:52:25.752Z,12.50
2023-04-20T12:54:56.521Z,12.50
2023-04-20T12:57:34.542Z,12.50
2023-04-20T13:00:13.269Z,12.60
2023-04-20T13:02:51.743Z,12.60
2023-04-20T13:05:20.393Z,12.70
2023-04-20T13:07:51.981Z,12.80
2023-04-20T13:10:22.626Z,13.00
2023-04-20T13:12:52.600Z,13.10
2023-04-20T13:15:35.694Z,13.30
2023-04-20T13:18:21.181Z,13.40
2023-04-20T13:20:50.047Z,13.50
2023-04-20T13:23:20.441Z,13.50
2023-04-20T13:25:50.697Z,13.50
2023-04-20T13:28:35.304Z,13.50
2023-04-20T13:31:15.657Z,13.60
2023-04-20T13:33:48.772Z,13.60
2023-04-20T13:36:29.203Z,13.60
2023-04-20T13:39:02.116Z,13.60
2023-04-20T13:41:49.535Z,13.60
2023-04-20T13:44:36.227Z,13.70
2023-04-20T13:47:18.233Z,13.80
2023-04-20T13:50:05.201Z,13.80
2023-04-20T13:52:34.133Z,13.90
2023-04-20T13:55:11.505Z,14.00
2023-04-20T13:57:42.174Z,14.00
2023-04-20T14:00:19.751Z,14.10
2023-04-20T14:03:31.395Z,14.20
2023-04-20T14:06:04.036Z,14.30
2023-04-20T14:08:32.553Z,14.60
2023-04-20T14:11:14.192Z,14.70
2023-04-20T14:13:58.660Z,14.60
2023-04-20T14:16:43.666Z,15.40
2023-04-20T14:19:31.460Z,15.90
2023-04-20T14:22:09.872Z,16.40
2023-04-20T14:25:10.064Z,16.80
2023-04-20T14:27:43.264Z,17.30
2023-04-20T14:30:29.341Z,17.60
2023-04-20T14:33:28.231Z,17.90
2023-04-20T14:36:10.337Z,18.60
2023-04-20T14:38:49.631Z,19.00
2023-04-20T14:41:25.275Z,20.20
2023-04-20T14:43:58.040Z,21.20
2023-04-20T14:46:40.018Z,21.90
2023-04-20T14:49:15.892Z,22.50
2023-04-20T14:52:37.413Z,23.10
2023-04-20T14:55:26.086Z,23.90
2023-04-20T14:58:10.484Z,24.50
2023-04-20T15:00:52.021Z,25.10
2023-04-20T15:06:24.619Z,25.80
2023-04-20T15:09:01.530Z,26.20
2023-04-20T15:11:32.408Z,26.60
2023-04-20T15:14:05.207Z,26.80
2023-04-20T15:16:56.765Z,26.90
2023-04-20T15:19:39.538Z,26.80
2023-04-20T15:22:14.992Z,26.20
2023-04-20T15:24:46.650Z,25.20
2023-04-20T15:27:17.251Z,24.70
2023-04-20T15:30:00.220Z,23.90
2023-04-20T15:32:37.282Z,23.40
2023-04-20T15:35:16.874Z,22.70
2023-04-20T15:37:46.438Z,22.30
2023-04-20T15:40:17.660Z,22.00
2023-04-20T15:43:03.705Z,21.90
2023-04-20T15:46:04.503Z,21.80
2023-04-20T15:48:38.305Z,21.40
2023-04-20T15:51:17.739Z,21.30
2023-04-20T15:53:59.547Z,21.10
2023-04-20T15:56:37.552Z,20.90
2023-04-20T15:59:25.464Z,20.70
2023-04-20T16:02:00.769Z,20.60
2023-04-20T16:04:34.800Z,20.50
2023-04-20T16:07:09.527Z,20.30
2023-04-20T16:09:56.877Z,20.20
2023-04-20T16:12:57.345Z,20.10
2023-04-20T16:15:53.458Z,19.70
2023-04-20T16:18:41.761Z,19.60
2023-04-20T16:21:40.456Z,19.20
2023-04-20T16:24:38.012Z,18.70
2023-04-20T16:30:52.438Z,18.40
2023-04-20T16:34:09.199Z,18.10
2023-04-20T16:37:11.176Z,17.90
2023-04-20T16:45:45.261Z,17.80
2023-04-20T17:01:14.357Z,18.40
2023-04-20T17:04:42.374Z,18.50
2023-04-20T17:07:36.882Z,18.30
2023-04-20T17:10:15.150Z,18.30
2023-04-20T17:12:53.173Z,18.20
2023-04-20T17:15:34.538Z,18.20
2023-04-20T17:18:20.998Z,18.10
2023-04-20T17:24:42.667Z,17.80
2023-04-20T17:31:16.423Z,17.60
2023-04-20T17:33:53.881Z,17.50
2023-04-20T17:36:34.386Z,17.30
2023-04-20T17:39:28.539Z,17.10
2023-04-20T17:42:04.519Z,17.20
2023-04-20T17:45:00.554Z,16.80
2023-04-20T17:47:56.695Z,16.70
2023-04-20T17:50:39.629Z,16.50
2023-04-20T17:53:39.570Z,16.40
2023-04-20T17:56:24.096Z,16.30
2023-04-20T17:58:55.106Z,16.00
2023-04-20T18:01:37.966Z,16.10
2023-04-20T18:04:23.521Z,16.00
2023-04-20T18:06:58.624Z,16.10
2023-04-20T18:09:32.193Z,15.70
2023-04-20T18:12:09.332Z,15.80
2023-04-20T18:15:09.601Z,15.50
2023-04-20T18:18:19.750Z,15.40
2023-04-20T18:21:04.441Z,15.20
2023-04-20T18:23:45.910Z,15.20
2023-04-20T18:26:33.648Z,14.80
2023-04-20T18:29:11.786Z,15.00
2023-04-20T18:31:56.568Z,14.90
2023-04-20T18:34:55.124Z,14.80
2023-04-20T18:58:01.078Z,14.20
2023-04-20T19:01:45.214Z,14.20
2023-04-20T19:17:17.698Z,13.90
2023-04-20T19:26:21.368Z,13.80
2023-04-20T19:29:03.547Z,13.80
2023-04-20T19:31:51.637Z,13.80
2023-04-20T19:35:02.372Z,13.70
2023-04-20T19:37:34.747Z,13.70
2023-04-20T19:40:08.072Z,13.60
2023-04-20T19:42:40.172Z,13.60
2023-04-20T19:45:15.994Z,13.60
2023-04-20T19:47:49.824Z,13.60
2023-04-20T19:50:18.682Z,13.30
2023-04-20T19:53:01.855Z,13.50
2023-04-20T19:56:10.369Z,13.50
2023-04-20T19:58:46.216Z,13.70
2023-04-20T20:01:19.084Z,13.40
2023-04-20T20:03:58.536Z,13.40
2023-04-20T20:06:27.288Z,13.30
2023-04-20T20:09:02.145Z,13.30
2023-04-20T20:11:37.440Z,13.30
2023-04-20T20:14:06.267Z,13.30
2023-04-20T20:16:35.626Z,13.20
2023-04-20T20:19:04.347Z,13.10
2023-04-20T20:21:35.396Z,13.10
2023-04-20T20:24:05.927Z,13.10
2023-04-20T20:26:37.456Z,13.00
2023-04-20T20:29:14.889Z,13.10
2023-04-20T20:31:50.333Z,13.00
2023-04-20T20:34:26.189Z,12.90
2023-04-20T20:37:01.541Z,12.90
2023-04-20T20:39:35.166Z,12.80
2023-04-20T20:42:21.582Z,12.60
2023-04-20T20:44:58.030Z,12.70
2023-04-20T20:47:33.657Z,12.70
2023-04-20T20:50:08.161Z,12.60
2023-04-20T20:52:41.352Z,12.60
2023-04-20T20:55:18.002Z,12.40
2023-04-20T20:57:49.142Z,12.50
2023-04-20T21:00:18.644Z,12.40
2023-04-20T21:02:47.170Z,12.40
2023-04-20T21:05:20.235Z,12.30
2023-04-20T21:07:51.213Z,12.20
2023-04-20T21:10:24.682Z,12.20
2023-04-20T21:13:07.912Z,12.10
2023-04-20T21:15:53.675Z,12.10
2023-04-20T21:18:23.289Z,12.00
2023-04-20T21:20:54.552Z,11.90
2023-04-20T21:23:26.428Z,11.90
2023-04-20T21:26:14.294Z,11.80
2023-04-20T21:28:50.667Z,11.80
2023-04-20T21:31:24.760Z,11.70
2023-04-20T21:34:02.606Z,11.80
2023-04-20T21:36:52.540Z,11.60
2023-04-20T21:39:58.159Z,11.60
2023-04-20T21:42:42.572Z,11.80
2023-04-20T21:45:23.450Z,11.50
2023-04-20T21:47:56.901Z,11.50
2023-04-20T21:50:39.510Z,11.40
2023-04-20T21:53:28.783Z,11.40
2023-04-20T21:55:57.885Z,11.30
2023-04-20T21:58:34.824Z,11.30
2023-04-20T22:01:06.952Z,11.30
2023-04-20T22:03:39.524Z,11.30
2023-04-20T22:06:09.017Z,11.30
2023-04-20T22:08:42.880Z,11.20
2023-04-20T22:11:16.188Z,11.20
2023-04-20T22:13:52.047Z,11.20
2023-04-20T22:16:26.073Z,11.10
2023-04-20T22:18:57.589Z,11.10
2023-04-20T22:21:26.143Z,11.00
2023-04-20T22:23:55.040Z,11.00
2023-04-20T22:26:28.945Z,11.00
2023-04-20T22:29:03.897Z,11.00
2023-04-20T22:31:38.508Z,11.00
2023-04-20T22:34:16.789Z,11.00
2023-04-20T22:36:55.977Z,10.90
2023-04-20T22:39:29.946Z,10.80
2023-04-20T22:42:02.236Z,10.50
2023-04-20T22:44:38.706Z,10.70
2023-04-20T22:47:31.468Z,10.60
2023-04-20T22:50:04.723Z,10.60
2023-04-20T22:55:37.848Z,10.50
2023-04-20T22:58:11.315Z,10.40
2023-04-20T23:00:44.074Z,10.50
2023-04-20T23:03:20.385Z,10.50
2023-04-20T23:05:54.528Z,10.50
2023-04-20T23:08:32.460Z,10.50
2023-04-20T23:11:19.112Z,10.50
2023-04-20T23:14:10.472Z,10.70
2023-04-20T23:17:00.966Z,10.40
2023-04-20T23:19:32.973Z,10.40
2023-04-20T23:22:17.546Z,10.30
2023-04-20T23:24:50.868Z,10.30
2023-04-20T23:27:26.414Z,10.10
2023-04-20T23:30:18.283Z,10.20
2023-04-20T23:32:58.138Z,10.20
2023-04-20T23:35:26.686Z,10.20
2023-04-20T23:37:58.046Z,10.10
2023-04-20T23:40:27.087Z,10.10
2023-04-20T23:42:57.609Z,10.00
2023-04-20T23:45:26.133Z,10.00
2023-04-20T23:47:55.901Z,9.90
2023-04-20T23:50:24.674Z,9.90
2023-04-20T23:52:54.061Z,9.90
2023-04-20T23:55:24.069Z,9.90
2023-04-20T23:57:58.931Z,9.90
